createdAt,value
2018-01-26T00:00:58.859Z,85.80
2018-01-26T00:03:25.149Z,85.60
2018-01-26T00:05:52.174Z,85.70
2018-01-26T00:08:19.056Z,85.70
2018-01-26T00:10:46.056Z,86.60
2018-01-26T00:13:12.330Z,86.00
2018-01-26T00:15:39.308Z,85.60
2018-01-26T00:18:06.339Z,86.00
2018-01-26T00:20:33.338Z,86.00
2018-01-26T00:23:02.192Z,85.80
2018-01-26T00:25:29.936Z,86.30
2018-01-26T00:27:57.320Z,85.60
2018-01-26T00:30:23.586Z,85.70
2018-01-26T00:32:49.843Z,86.10
2018-01-26T00:35:16.442Z,86.30
2018-01-26T00:37:43.874Z,86.10
2018-01-26T00:40:10.133Z,86.10
2018-01-26T00:42:37.138Z,86.30
2018-01-26T00:45:04.033Z,86.40
2018-01-26T00:47:31.405Z,85.60
2018-01-26T00:49:58.410Z,86.10
2018-01-26T00:52:24.666Z,86.00
2018-01-26T00:54:51.698Z,85.80
2018-01-26T00:57:18.578Z,85.80
2018-01-26T00:59:46.045Z,85.90
2018-01-26T01:02:13.045Z,85.60
2018-01-26T01:04:39.314Z,85.60
2018-01-26T01:07:06.230Z,85.50
2018-01-26T01:09:32.933Z,85.40
2018-01-26T01:11:59.946Z,85.40
2018-01-26T01:14:26.789Z,85.40
2018-01-26T01:16:53.034Z,85.40
2018-01-26T01:19:19.293Z,85.40
2018-01-26T01:21:46.502Z,85.10
2018-01-26T01:24:13.502Z,85.10
2018-01-26T01:26:41.130Z,85.00
2018-01-26T01:29:07.793Z,85.00
2018-01-26T01:31:35.530Z,85.30
2018-01-26T01:34:01.813Z,85.10
2018-01-26T01:36:28.842Z,85.50
2018-01-26T01:38:55.707Z,85.50
2018-01-26T01:41:21.970Z,85.50
2018-01-26T01:43:48.226Z,85.30
2018-01-26T01:46:15.237Z,85.60
2018-01-26T01:48:49.651Z,85.30
2018-01-26T01:51:15.914Z,85.30
2018-01-26T01:53:42.838Z,85.10
2018-01-26T01:56:09.837Z,84.70
2018-01-26T01:58:36.944Z,85.30
2018-01-26T02:01:04.338Z,85.20
2018-01-26T02:03:30.594Z,84.60
2018-01-26T02:05:56.850Z,85.30
2018-01-26T02:08:23.724Z,85.10
2018-01-26T02:10:51.394Z,85.20
2018-01-26T02:13:19.059Z,84.90
2018-01-26T02:15:46.061Z,84.90
2018-01-26T02:18:12.308Z,84.90
2018-01-26T02:20:38.587Z,84.80
2018-01-26T02:23:06.866Z,84.70
2018-01-26T02:25:34.369Z,84.90
2018-01-26T02:28:01.269Z,84.90
2018-01-26T02:30:28.282Z,85.90
2018-01-26T02:32:54.549Z,85.00
2018-01-26T02:35:21.812Z,85.50
2018-01-26T02:37:48.062Z,85.20
2018-01-26T02:40:15.138Z,85.30
2018-01-26T02:42:42.264Z,85.30
2018-01-26T02:45:10.011Z,85.80
2018-01-26T02:47:38.294Z,85.40
2018-01-26T02:50:05.664Z,84.90
2018-01-26T02:52:32.398Z,84.90
2018-01-26T02:55:00.147Z,85.50
2018-01-26T02:57:26.418Z,85.50
2018-01-26T02:59:53.852Z,85.10
2018-01-26T03:02:20.106Z,85.90
2018-01-26T03:04:46.365Z,85.10
2018-01-26T03:07:13.395Z,85.10
2018-01-26T03:09:40.058Z,85.00
2018-01-26T03:12:07.499Z,85.10
2018-01-26T03:14:33.754Z,85.10
2018-01-26T03:17:00.755Z,85.00
2018-01-26T03:19:27.040Z,84.90
2018-01-26T03:21:54.473Z,84.70
2018-01-26T03:24:21.139Z,84.80
2018-01-26T03:26:48.773Z,85.10
2018-01-26T03:29:15.765Z,85.10
2018-01-26T03:31:42.764Z,84.80
2018-01-26T03:34:09.033Z,84.80
2018-01-26T03:36:35.707Z,85.10
2018-01-26T03:39:02.028Z,85.00
2018-01-26T03:41:29.026Z,84.80
2018-01-26T03:43:55.613Z,84.80
2018-01-26T03:46:22.988Z,84.70
2018-01-26T03:48:50.033Z,84.60
2018-01-26T03:51:17.040Z,84.80
2018-01-26T03:53:43.308Z,84.80
2018-01-26T03:56:10.346Z,84.50
2018-01-26T03:58:36.609Z,84.50
2018-01-26T04:01:04.274Z,84.30
2018-01-26T04:03:31.266Z,84.50
2018-01-26T04:05:57.976Z,84.60
2018-01-26T04:08:24.816Z,84.50
2018-01-26T04:10:51.810Z,84.50
2018-01-26T04:13:18.088Z,84.50
2018-01-26T04:15:44.633Z,84.30
2018-01-26T04:18:10.898Z,84.70
2018-01-26T04:20:37.627Z,84.30
2018-01-26T04:23:05.176Z,84.10
2018-01-26T04:25:31.898Z,84.10
2018-01-26T04:27:58.876Z,84.20
2018-01-26T04:30:25.906Z,84.10
2018-01-26T04:32:52.204Z,84.10
2018-01-26T04:35:18.800Z,83.90
2018-01-26T04:37:45.056Z,83.70
2018-01-26T04:40:12.174Z,83.70
2018-01-26T04:42:38.728Z,83.70
2018-01-26T04:45:06.600Z,83.50
2018-01-26T04:47:33.499Z,83.50
2018-01-26T04:50:00.507Z,84.00
2018-01-26T04:52:27.952Z,83.20
2018-01-26T04:54:54.238Z,83.80
2018-01-26T04:57:20.492Z,83.80
2018-01-26T04:59:47.500Z,83.70
2018-01-26T05:02:14.489Z,83.80
2018-01-26T05:04:41.281Z,83.80
2018-01-26T05:07:08.044Z,83.60
2018-01-26T05:09:35.036Z,83.70
2018-01-26T05:12:01.296Z,83.60
2018-01-26T05:14:27.775Z,83.80
2018-01-26T05:16:55.124Z,83.60
2018-01-26T05:19:22.560Z,83.60
2018-01-26T05:21:49.277Z,83.50
2018-01-26T05:24:16.176Z,83.40
2018-01-26T05:26:43.738Z,84.30
2018-01-26T05:29:10.379Z,83.60
2018-01-26T05:31:37.381Z,84.10
2018-01-26T05:34:03.646Z,83.80
2018-01-26T05:36:30.216Z,83.60
2018-01-26T05:38:57.216Z,83.70
2018-01-26T05:41:24.489Z,83.70
2018-01-26T05:43:51.755Z,83.30
2018-01-26T05:46:33.466Z,83.10
2018-01-26T05:49:00.902Z,82.90
2018-01-26T05:51:27.780Z,82.90
2018-01-26T05:53:54.778Z,83.30
2018-01-26T05:56:21.038Z,83.20
2018-01-26T05:58:47.808Z,83.30
2018-01-26T06:01:14.599Z,83.30
2018-01-26T06:03:40.834Z,83.20
2018-01-26T06:06:07.096Z,82.90
2018-01-26T06:08:33.972Z,82.70
2018-01-26T06:11:00.234Z,82.60
2018-01-26T06:13:26.530Z,82.60
2018-01-26T06:15:54.733Z,82.20
2018-01-26T06:18:21.757Z,82.00
2018-01-26T06:20:48.043Z,81.80
2018-01-26T06:23:14.310Z,82.10
2018-01-26T06:25:40.926Z,82.10
2018-01-26T06:28:07.780Z,82.30
2018-01-26T06:30:34.108Z,82.20
2018-01-26T06:33:01.098Z,82.20
2018-01-26T06:35:27.360Z,81.90
2018-01-26T06:37:54.354Z,81.70
2018-01-26T06:40:20.847Z,81.80
2018-01-26T06:42:47.694Z,81.70
2018-01-26T06:45:14.448Z,82.00
2018-01-26T06:47:42.010Z,82.00
2018-01-26T06:50:09.643Z,82.00
2018-01-26T06:52:36.333Z,81.90
2018-01-26T06:55:03.354Z,81.70
2018-01-26T06:57:29.613Z,81.70
2018-01-26T06:59:57.066Z,81.50
2018-01-26T07:02:24.119Z,81.70
2018-01-26T07:04:50.771Z,81.70
2018-01-26T07:07:18.237Z,81.90
2018-01-26T07:09:45.242Z,81.80
2018-01-26T07:12:12.130Z,81.70
2018-01-26T07:14:39.125Z,81.20
2018-01-26T07:17:05.424Z,81.90
2018-01-26T07:19:33.091Z,80.90
2018-01-26T07:22:00.094Z,80.60
2018-01-26T07:24:26.978Z,80.60
2018-01-26T07:26:53.858Z,80.30
2018-01-26T07:29:20.762Z,80.60
2018-01-26T07:31:48.506Z,80.20
2018-01-26T07:34:15.293Z,80.20
2018-01-26T07:36:41.544Z,80.10
2018-01-26T07:39:08.381Z,80.20
2018-01-26T07:41:35.370Z,79.60
2018-01-26T07:44:01.629Z,79.60
2018-01-26T07:46:28.426Z,79.70
2018-01-26T07:48:56.483Z,78.80
2018-01-26T07:51:22.741Z,78.80
2018-01-26T07:53:49.008Z,79.00
2018-01-26T07:56:15.613Z,78.90
2018-01-26T07:58:42.632Z,79.30
2018-01-26T08:01:09.573Z,79.20
2018-01-26T08:03:36.557Z,78.60
2018-01-26T08:06:03.562Z,78.50
2018-01-26T08:08:30.291Z,78.50
2018-01-26T08:10:57.090Z,78.30
2018-01-26T08:13:23.341Z,78.00
2018-01-26T08:15:50.826Z,77.60
2018-01-26T08:18:17.736Z,77.70
2018-01-26T08:20:43.997Z,77.40
2018-01-26T08:23:10.858Z,77.60
2018-01-26T08:25:37.590Z,77.30
2018-01-26T08:28:05.442Z,76.40
2018-01-26T08:30:32.458Z,77.40
2018-01-26T08:32:58.738Z,76.50
2018-01-26T08:35:26.120Z,76.20
2018-01-26T08:37:52.802Z,76.20
2018-01-26T08:40:19.074Z,75.90
2018-01-26T08:42:46.072Z,75.70
2018-01-26T08:45:12.754Z,75.70
2018-01-26T08:47:39.498Z,75.20
2018-01-26T08:50:05.802Z,75.00
2018-01-26T08:52:32.677Z,75.30
2018-01-26T08:55:00.090Z,73.80
2018-01-26T08:57:26.696Z,73.80
2018-01-26T08:59:54.058Z,72.70
2018-01-26T09:02:21.093Z,74.00
2018-01-26T09:04:48.822Z,73.30
2018-01-26T09:07:15.634Z,73.20
2018-01-26T09:09:42.637Z,73.40
2018-01-26T09:12:09.426Z,73.20
2018-01-26T09:14:36.426Z,72.00
2018-01-26T09:17:02.694Z,71.90
2018-01-26T09:19:30.373Z,71.80
2018-01-26T09:21:56.624Z,71.80
2018-01-26T09:24:23.626Z,70.90
2018-01-26T09:26:50.309Z,70.90
2018-01-26T09:29:17.874Z,70.00
2018-01-26T09:31:44.874Z,69.90
2018-01-26T09:34:12.696Z,69.80
2018-01-26T09:36:39.693Z,68.80
2018-01-26T09:39:05.963Z,68.60
2018-01-26T09:41:32.232Z,68.70
2018-01-26T09:43:59.243Z,68.50
2018-01-26T09:46:26.583Z,70.00
2018-01-26T09:48:53.432Z,69.40
2018-01-26T09:51:20.333Z,68.80
2018-01-26T09:53:47.333Z,69.20
2018-01-26T09:56:14.088Z,69.10
2018-01-26T09:58:40.363Z,69.00
2018-01-26T10:01:07.965Z,67.40
2018-01-26T10:03:34.221Z,67.40
2018-01-26T10:06:00.784Z,67.10
2018-01-26T10:08:27.450Z,67.10
2018-01-26T10:10:54.449Z,68.10
2018-01-26T10:13:20.706Z,68.00
2018-01-26T10:15:47.269Z,67.60
2018-01-26T10:18:13.531Z,66.80
2018-01-26T10:20:39.858Z,65.00
2018-01-26T10:23:07.514Z,66.60
2018-01-26T10:25:34.946Z,65.80
2018-01-26T10:28:03.362Z,66.40
2018-01-26T10:30:30.346Z,66.00
2018-01-26T10:32:57.146Z,66.00
2018-01-26T10:35:23.403Z,65.80
2018-01-26T10:38:05.322Z,66.30
2018-01-26T10:40:31.605Z,66.30
2018-01-26T10:42:58.816Z,65.70
2018-01-26T10:45:25.642Z,65.80
2018-01-26T10:47:52.354Z,66.10
2018-01-26T10:50:19.078Z,66.00
2018-01-26T10:52:45.858Z,65.20
2018-01-26T10:55:13.421Z,64.90
2018-01-26T10:57:40.402Z,65.60
2018-01-26T11:00:07.333Z,65.60
2018-01-26T11:02:34.765Z,65.60
2018-01-26T11:05:01.531Z,65.60
2018-01-26T11:07:28.994Z,65.10
2018-01-26T11:09:55.993Z,64.60
2018-01-26T11:12:22.280Z,64.70
2018-01-26T11:14:49.530Z,65.60
2018-01-26T11:17:15.765Z,65.30
2018-01-26T11:19:42.103Z,64.90
2018-01-26T11:22:09.139Z,64.70
2018-01-26T11:24:35.394Z,65.30
2018-01-26T11:27:03.166Z,65.40
2018-01-26T11:29:30.530Z,64.70
2018-01-26T11:31:57.994Z,64.40
2018-01-26T11:34:24.978Z,64.80
2018-01-26T11:36:51.226Z,64.80
2018-01-26T11:39:17.514Z,65.00
2018-01-26T11:41:44.499Z,64.20
2018-01-26T11:44:11.301Z,64.20
2018-01-26T11:46:39.112Z,64.20
2018-01-26T11:49:06.064Z,64.20
2018-01-26T11:51:32.322Z,64.40
2018-01-26T11:53:58.578Z,64.40
2018-01-26T11:56:25.138Z,63.80
2018-01-26T11:58:52.117Z,63.20
2018-01-26T12:01:18.690Z,63.20
2018-01-26T12:03:44.932Z,64.00
2018-01-26T12:06:11.621Z,63.30
2018-01-26T12:08:39.746Z,63.80
2018-01-26T12:11:06.008Z,63.80
2018-01-26T12:13:32.282Z,63.50
2018-01-26T12:15:58.566Z,63.30
2018-01-26T12:18:24.825Z,63.30
2018-01-26T12:20:51.909Z,63.90
2018-01-26T12:23:18.181Z,63.90
2018-01-26T12:25:45.133Z,62.40
2018-01-26T12:28:11.842Z,61.90
2018-01-26T12:30:38.138Z,62.70
2018-01-26T12:33:05.098Z,62.60
2018-01-26T12:35:32.093Z,61.80
2018-01-26T12:37:58.347Z,61.70
2018-01-26T12:40:24.625Z,61.90
2018-01-26T12:42:51.634Z,61.90
2018-01-26T12:45:18.292Z,61.90
2018-01-26T12:47:45.155Z,60.80
2018-01-26T12:50:11.442Z,61.40
2018-01-26T12:52:37.690Z,60.20
2018-01-26T12:55:03.952Z,59.70
2018-01-26T12:57:30.916Z,61.00
2018-01-26T12:59:58.578Z,60.50
2018-01-26T13:02:25.579Z,58.70
2018-01-26T13:04:52.394Z,58.80
2018-01-26T13:07:20.245Z,60.20
2018-01-26T13:09:46.482Z,60.20
2018-01-26T13:12:13.482Z,59.60
2018-01-26T13:14:39.954Z,59.60
2018-01-26T13:17:06.210Z,59.70
2018-01-26T13:19:33.309Z,60.10
2018-01-26T13:21:59.802Z,59.90
2018-01-26T13:24:27.410Z,58.50
2018-01-26T13:26:54.218Z,58.40
2018-01-26T13:29:21.898Z,56.20
2018-01-26T13:31:48.885Z,58.00
2018-01-26T13:34:15.149Z,57.90
2018-01-26T13:36:41.709Z,57.80
2018-01-26T13:39:08.726Z,59.40
2018-01-26T13:41:35.381Z,58.80
2018-01-26T13:44:02.349Z,59.00
2018-01-26T13:46:29.409Z,60.90
2018-01-26T13:48:56.781Z,59.30
2018-01-26T13:51:23.787Z,59.40
2018-01-26T13:53:50.042Z,59.40
2018-01-26T13:56:16.843Z,59.50
2018-01-26T13:58:43.198Z,58.90
2018-01-26T14:01:10.394Z,59.30
2018-01-26T14:03:37.416Z,60.60
2018-01-26T14:06:03.682Z,59.80
2018-01-26T14:08:30.437Z,60.20
2018-01-26T14:10:57.435Z,62.00
2018-01-26T14:13:23.682Z,62.00
2018-01-26T14:15:50.573Z,62.30
2018-01-26T14:18:17.553Z,62.70
2018-01-26T14:20:43.821Z,62.70
2018-01-26T14:23:11.125Z,63.90
2018-01-26T14:25:37.959Z,63.50
2018-01-26T14:28:05.394Z,63.90
2018-01-26T14:30:31.653Z,63.90
2018-01-26T14:32:58.642Z,65.50
2018-01-26T14:35:25.650Z,65.50
2018-01-26T14:37:51.894Z,65.20
2018-01-26T14:40:19.869Z,67.10
2018-01-26T14:42:47.641Z,67.80
2018-01-26T14:45:15.394Z,67.80
2018-01-26T14:47:42.362Z,67.70
2018-01-26T14:50:09.346Z,68.10
2018-01-26T14:52:36.459Z,68.20
2018-01-26T14:55:03.461Z,69.00
2018-01-26T14:57:29.722Z,69.00
2018-01-26T14:59:58.434Z,69.00
2018-01-26T15:02:25.434Z,69.40
2018-01-26T15:04:51.700Z,69.40
2018-01-26T15:07:20.050Z,69.80
2018-01-26T15:09:46.765Z,69.80
2018-01-26T15:12:14.211Z,70.20
2018-01-26T15:14:41.212Z,71.50
2018-01-26T15:17:07.482Z,70.70
2018-01-26T15:19:33.754Z,70.40
2018-01-26T15:22:00.306Z,70.40
2018-01-26T15:24:26.581Z,70.70
2018-01-26T15:26:53.253Z,70.70
2018-01-26T15:29:20.922Z,71.10
2018-01-26T15:31:47.938Z,71.00
2018-01-26T15:34:14.226Z,70.90
2018-01-26T15:36:41.490Z,71.20
2018-01-26T15:39:07.754Z,71.80
2018-01-26T15:41:34.421Z,71.80
2018-01-26T15:44:02.970Z,72.10
2018-01-26T15:46:29.250Z,72.10
2018-01-26T15:48:55.933Z,72.60
2018-01-26T15:51:22.570Z,72.70
2018-01-26T15:53:48.834Z,72.40
2018-01-26T15:56:15.498Z,72.30
2018-01-26T15:58:42.402Z,72.60
2018-01-26T16:01:09.141Z,72.80
2018-01-26T16:03:36.130Z,73.30
2018-01-26T16:06:02.434Z,73.30
2018-01-26T16:08:29.117Z,73.20
2018-01-26T16:10:55.389Z,73.50
2018-01-26T16:13:22.792Z,74.40
2018-01-26T16:16:00.262Z,74.40
2018-01-26T16:18:27.226Z,74.80
2018-01-26T16:20:53.501Z,74.70
2018-01-26T16:23:19.766Z,74.60
2018-01-26T16:25:47.202Z,74.90
2018-01-26T16:28:13.872Z,74.80
2018-01-26T16:30:55.794Z,75.30
2018-01-26T16:33:22.706Z,75.30
2018-01-26T16:35:49.325Z,75.10
2018-01-26T16:38:16.053Z,75.90
2018-01-26T16:40:42.309Z,76.60
2018-01-26T16:43:08.574Z,76.60
2018-01-26T16:45:36.003Z,76.70
2018-01-26T16:48:02.659Z,76.50
2018-01-26T16:50:28.922Z,76.80
2018-01-26T16:52:55.906Z,76.60
2018-01-26T16:55:22.874Z,76.60
2018-01-26T16:57:49.114Z,77.60
2018-01-26T17:00:15.850Z,77.90
2018-01-26T17:02:42.104Z,77.80
2018-01-26T17:05:08.366Z,77.70
2018-01-26T17:07:37.146Z,77.80
2018-01-26T17:10:03.418Z,77.80
2018-01-26T17:12:29.670Z,77.80
2018-01-26T17:14:56.386Z,77.80
2018-01-26T17:17:23.114Z,77.30
2018-01-26T17:19:50.778Z,77.90
2018-01-26T17:22:17.778Z,78.50
2018-01-26T17:24:44.034Z,78.50
2018-01-26T17:27:10.816Z,78.80
2018-01-26T17:29:37.813Z,78.90
2018-01-26T17:32:04.917Z,79.00
2018-01-26T17:34:32.589Z,82.10
2018-01-26T17:36:59.573Z,80.50
2018-01-26T17:39:25.834Z,80.60
2018-01-26T17:41:52.108Z,80.10
2018-01-26T17:44:19.770Z,80.00
2018-01-26T17:46:47.453Z,79.70
2018-01-26T17:49:14.170Z,79.70
2018-01-26T17:51:42.393Z,79.90
2018-01-26T17:54:09.119Z,79.90
2018-01-26T17:56:36.118Z,80.20
2018-01-26T17:59:02.386Z,80.10
2018-01-26T18:01:29.869Z,80.80
2018-01-26T18:03:57.165Z,80.00
2018-01-26T18:06:23.402Z,80.00
2018-01-26T18:08:49.989Z,80.40
2018-01-26T18:11:17.757Z,80.50
2018-01-26T18:13:45.149Z,81.00
2018-01-26T18:16:11.437Z,81.00
2018-01-26T18:18:38.218Z,80.30
2018-01-26T18:21:04.485Z,81.30
2018-01-26T18:23:30.737Z,81.60
2018-01-26T18:25:57.618Z,81.50
2018-01-26T18:28:24.941Z,83.20
2018-01-26T18:30:52.154Z,82.40
2018-01-26T18:33:19.155Z,82.40
2018-01-26T18:35:45.426Z,82.10
2018-01-26T18:38:12.456Z,81.50
2018-01-26T18:40:39.741Z,82.10
2018-01-26T18:43:07.402Z,82.20
2018-01-26T18:45:34.870Z,82.30
2018-01-26T18:48:02.538Z,81.40
2018-01-26T18:50:29.875Z,84.80
2018-01-26T18:52:56.875Z,84.80
2018-01-26T18:55:23.154Z,84.90
2018-01-26T18:57:49.715Z,85.60
2018-01-26T19:00:17.402Z,85.00
2018-01-26T19:02:43.653Z,84.90
2018-01-26T19:05:09.901Z,84.70
2018-01-26T19:07:36.498Z,87.20
2018-01-26T19:10:04.162Z,85.70
2018-01-26T19:12:31.510Z,86.80
2018-01-26T19:14:58.890Z,84.20
2018-01-26T19:17:25.906Z,89.00
2018-01-26T19:19:52.695Z,89.10
2018-01-26T19:22:19.689Z,85.70
2018-01-26T19:24:45.954Z,85.80
2018-01-26T19:27:12.937Z,84.00
2018-01-26T19:29:39.205Z,85.30
2018-01-26T19:32:05.858Z,86.00
2018-01-26T19:34:32.113Z,84.00
2018-01-26T19:36:58.369Z,86.00
2018-01-26T19:39:26.723Z,84.50
2018-01-26T19:41:54.173Z,84.60
2018-01-26T19:44:20.893Z,83.10
2018-01-26T19:46:48.429Z,84.50
2018-01-26T19:49:15.907Z,84.10
2018-01-26T19:51:42.725Z,84.10
2018-01-26T19:54:10.290Z,84.80
2018-01-26T19:56:37.298Z,85.10
2018-01-26T19:59:04.090Z,85.10
2018-01-26T20:01:31.458Z,85.60
2018-01-26T20:04:03.066Z,85.90
2018-01-26T20:06:50.274Z,85.90
2018-01-26T20:09:23.132Z,85.90
2018-01-26T20:11:55.920Z,86.70
2018-01-26T20:14:22.221Z,86.30
2018-01-26T20:16:49.255Z,85.50
2018-01-26T20:19:15.605Z,85.40
2018-01-26T20:21:42.786Z,85.70
2018-01-26T20:24:09.691Z,84.90
2018-01-26T20:26:36.469Z,85.50
2018-01-26T20:29:03.943Z,86.30
2018-01-26T20:31:30.966Z,85.20
2018-01-26T20:33:57.238Z,85.20
2018-01-26T20:36:23.861Z,85.10
2018-01-26T20:38:51.325Z,86.60
2018-01-26T20:41:18.314Z,85.50
2018-01-26T20:43:44.581Z,85.50
2018-01-26T20:46:11.350Z,86.90
2018-01-26T20:48:38.915Z,86.50
2018-01-26T20:51:05.573Z,86.50
2018-01-26T20:53:32.717Z,87.20
2018-01-26T20:55:59.740Z,86.80
2018-01-26T20:58:26.314Z,86.80
2018-01-26T21:00:53.714Z,85.20
2018-01-26T21:03:19.978Z,85.10
2018-01-26T21:05:46.685Z,86.50
2018-01-26T21:08:13.392Z,86.10
2018-01-26T21:10:40.413Z,86.40
2018-01-26T21:13:06.694Z,86.20
2018-01-26T21:15:33.746Z,85.90
2018-01-26T21:18:00.757Z,85.80
2018-01-26T21:20:27.534Z,85.80
2018-01-26T21:22:54.941Z,85.40
2018-01-26T21:25:21.666Z,85.40
2018-01-26T21:27:48.317Z,86.70
2018-01-26T21:30:14.598Z,86.40
2018-01-26T21:32:40.930Z,87.00
2018-01-26T21:35:07.218Z,86.80
2018-01-26T21:37:48.789Z,86.70
2018-01-26T21:40:16.561Z,87.00
2018-01-26T21:42:42.826Z,86.90
2018-01-26T21:45:09.706Z,86.30
2018-01-26T21:47:36.380Z,86.80
2018-01-26T21:50:03.420Z,86.20
2018-01-26T21:52:30.918Z,85.00
2018-01-26T21:54:57.186Z,85.40
2018-01-26T21:57:23.432Z,85.80
2018-01-26T21:59:50.813Z,87.10
2018-01-26T22:02:17.805Z,86.90
2018-01-26T22:04:50.714Z,86.90
2018-01-26T22:07:23.124Z,86.90
2018-01-26T22:09:50.578Z,87.30
2018-01-26T22:12:16.902Z,86.40
2018-01-26T22:14:43.163Z,86.30
2018-01-26T22:17:10.174Z,87.40
2018-01-26T22:19:36.445Z,88.20
2018-01-26T22:22:04.048Z,87.30
2018-01-26T22:24:31.139Z,87.30
2018-01-26T22:26:57.917Z,87.00
2018-01-26T22:29:25.258Z,87.30
2018-01-26T22:31:51.507Z,87.30
2018-01-26T22:34:18.997Z,87.20
2018-01-26T22:36:45.338Z,87.20
2018-01-26T22:39:12.049Z,88.20
2018-01-26T22:41:39.043Z,87.10
2018-01-26T22:44:06.261Z,87.00
2018-01-26T22:46:33.251Z,86.40
2018-01-26T22:48:59.869Z,86.30
2018-01-26T22:51:26.803Z,86.50
2018-01-26T22:53:53.813Z,86.60
2018-01-26T22:56:20.077Z,86.60
2018-01-26T22:58:46.840Z,86.50
2018-01-26T23:01:14.178Z,86.30
2018-01-26T23:03:41.213Z,86.20
2018-01-26T23:06:08.384Z,86.30
2018-01-26T23:08:35.181Z,87.00
2018-01-26T23:11:01.446Z,86.60
2018-01-26T23:13:27.719Z,87.00
2018-01-26T23:15:55.085Z,86.90
2018-01-26T23:18:22.747Z,87.30
2018-01-26T23:20:50.194Z,86.60
2018-01-26T23:23:16.493Z,86.60
2018-01-26T23:25:43.402Z,86.70
2018-01-26T23:28:10.882Z,86.40
2018-01-26T23:30:38.869Z,86.40
2018-01-26T23:33:05.152Z,86.40
2018-01-26T23:35:31.435Z,86.70
2018-01-26T23:37:58.250Z,86.30
2018-01-26T23:40:25.248Z,86.70
2018-01-26T23:42:51.514Z,86.60
2018-01-26T23:45:18.202Z,84.90
2018-01-26T23:47:45.851Z,85.80
2018-01-26T23:50:12.847Z,85.60
2018-01-26T23:52:39.525Z,85.60
2018-01-26T23:55:05.778Z,86.60
2018-01-26T23:57:33.226Z,86.70
